Fountain Hill, Arkansas
Current Conditions -  °F | °C
As of 12:53 PM on Thursday 23 Oct 2014 (Local Time) from KLLQ Reporting Station
Clear Clear  
Wind Chill: 60°   Ceiling: Unl
Heat Index: 60°   Visibility: 10mi
Dew Point: 49°   Wind: 0mph
Humidity: 67%   Direction: NA
Pressure: 30.17"   Gusts: NA
Location:  33.36°N, 91.85°W
Report Text: KLLQ 231753Z AUTO 00000KT 10SM CLR 16/09 A3017 RMK AO2 SLP216 T01560094 10156 20083 58009
Loading
Personal Weather Stations






























Interactive Weather Map
Tropical Storm Tracking
New forecast layout! Learn more

10-Day Weather Forecast

Advertisements
Track Severe Weather on mobile